| 9/2/2026 | Kinetic Wealth Investment Advisors LLC | 41,089 | $2.48M | 1.2% | N/A | 0.061% | |
| 9/2/2026 | Citadel Advisors LLC | 91,400 | $5.51M | 0.0% | -41.1% | 0.136% | |
| 8/27/2026 | Corient Private Wealth LP | 8,380 | $505K | 0.0% | N/A | 0.012% | |
| 8/26/2026 | Affinity Wealth LLC | 341,315 | $20.58M | 11.1% | +6.0% | 0.506% | |
| 8/23/2026 | PCG Wealth Advisors LLC | 62,617 | $3.78M | 0.8% | -6.1% | 0.093% | |
| 8/23/2026 | Kraematon Investment Advisors Inc. | 62,634 | $3.78M | 2.8% | +2.8% | 0.093% | |
| 8/22/2026 | Tenet Wealth Partners LLC | 17,183 | $1.03M | 0.8% | N/A | 0.025% | |
| 8/22/2026 | TD Waterhouse Canada Inc. | 8,073 | $483K | 0.0% | +113.9% | 0.012% | |
| 8/21/2026 | Continuum Advisory LLC | 38,405 | $2.32M | 0.2% | +70.5% | 0.057% | |
| 8/21/2026 | Secure Asset Management LLC | 29,856 | $1.80M | 0.3% | -4.5% | 0.044% | |
Get the Latest News and Ratings for IDMO and Related Stocks Enter your email address below to receive the latest news and analysts' ratings for Invesco S&P International Developed Momentum ETF and its competitors with MarketBeat's FREE daily newsletter.
|
| 8/21/2026 | Triumph Capital Management | 15,183 | $915K | 0.2% | -7.0% | 0.023% | |
| 7/10/2026 | Annex Advisory Services LLC | 41,015 | $2.47M | 0.0% | +3.8% | 0.063% | |
| 7/10/2026 | Insight Wealth Strategies LLC | 385,732 | $23.10M | 2.2% | +4.7% | 0.588% | |
| 7/10/2026 | Redhawk Wealth Advisors Inc. | 10,477 | $632K | 0.1% | +15.2% | 0.016% | |
| 7/9/2026 | Key Client Fiduciary Advisors LLC | 16,193 | $976K | 0.3% | -2.5% | 0.025% | |
| 7/9/2026 | CPA Asset Management Group LLC | 176,931 | $10.67M | 3.1% | +251.6% | 0.270% | |
| 7/9/2026 | Professional Financial Advisors LLC | 68,552 | $4.13M | 0.7% | +4.4% | 0.105% | |
| 7/9/2026 | IFC & Insurance Marketing Inc. | 151,715 | $9.15M | 8.1% | +8.2% | 0.231% | |
| 7/9/2026 | StoneCrest Wealth Management Inc. | 224,418 | $13.53M | 4.3% | -0.5% | 0.342% | |
| 7/9/2026 | Whitaker Myers Wealth Managers LTD. | 432,402 | $26.07M | 4.4% | +8.7% | 0.659% | |
| 7/9/2026 | Adamsbrown Wealth Consultants LLC | 624,654 | $37.66M | 7.1% | +5.1% | 0.952% | |
| 7/9/2026 | Hennion & Walsh Asset Management Inc. | 124,712 | $7.52M | 0.2% | N/A | 0.190% | |
| 7/9/2026 | West Financial Advisors LLC | 2,414 | $146K | 0.0% | N/A | 0.004% | |
| 7/8/2026 | Foresight Capital Management Advisors Inc. | 99,639 | $6.00M | 2.9% | +2.5% | 0.152% | |
| 7/8/2026 | Meriwether Wealth & Planning LLC | 46,140 | $2.78M | 1.4% | +17.4% | 0.070% | |
| 7/8/2026 | Westmount Partners LLC | 40,000 | $2.41M | 0.5% | N/A | 0.061% | |
| 7/7/2026 | Fermata Advisors LLC | 6,393 | $385K | 0.1% | N/A | 0.010% | |
| 7/7/2026 | CoreCap Advisors LLC | 6,687 | $403K | 0.0% | -12.4% | 0.010% | |
| 7/6/2026 | RDA Financial Network | 60,213 | $3.63M | 0.8% | +6.1% | 0.092% | |
| 7/6/2026 | Dogwood Wealth Management LLC | 160,272 | $9.66M | 3.8% | +9.7% | 0.246% | |
| 6/18/2026 | Western Wealth Management LLC | 13,050 | $716K | 0.0% | -88.0% | 0.022% | |
| 6/16/2026 | Steelhead Wealth Management LLC | 19,980 | $1.10M | 0.6% | N/A | 0.033% | |
| 5/21/2026 | Kensington Asset Management LLC | 11,171 | $613K | 0.0% | N/A | 0.019% | |
| 5/19/2026 | Western Wealth Management LLC | 13,050 | $716K | 0.0% | -88.0% | 0.022% | |
| 5/19/2026 | McIlrath & Eck LLC | 455,519 | $24.98M | 1.9% | +3.1% | 0.755% | |
| 5/19/2026 | Bank of America Corp DE | 535,605 | $29.37M | 0.0% | +495.9% | 0.887% | |
| 5/19/2026 | Centaurus Financial Inc. | 186,512 | $10.23M | 0.5% | +47.8% | 0.309% | |
| 5/18/2026 | EverSource Wealth Advisors LLC | 22,519 | $1.24M | 0.0% | N/A | 0.037% | |
| 5/18/2026 | Royal Bank of Canada | 48,090 | $2.64M | 0.0% | +22.8% | 0.080% | |
| 5/16/2026 | Quantinno Capital Management LP | 12,706 | $697K | 0.0% | +49.6% | 0.021% | |
My top 3 AI picks for the next decade (Ad) Alexander Green bought Apple in 1996, recommended Nvidia at a split-adjusted 66 cents in 2004, and picked up Amazon and Netflix under $3 per share in 2005.
Now the chief investment strategist at The Oxford Club has identified three AI stocks he believes could be the most profitable investments of the next decade. Click here to get all three AI stock names from Alexander Green |
| 5/15/2026 | Waverly Advisors LLC | 1,293 | $71K | 0.0% | N/A | 0.002% | |
| 5/14/2026 | Modern Wealth Management LLC | 248,014 | $13.98M | 0.2% | +10.3% | 0.411% | |
| 5/14/2026 | Greenline Wealth Management LLC | 70,387 | $3.86M | 4.5% | +24.2% | 0.117% | |
| 5/13/2026 | Cetera Investment Advisers | 2,098,429 | $115.08M | 0.1% | +33.2% | 3.477% | |
| 5/13/2026 | Envision Financial Transparency LLC | 29,795 | $1.63M | 1.6% | N/A | 0.049% | |
| 5/13/2026 | Daner Wealth Management LLC | 13,862 | $837K | 0.4% | +8.4% | 0.023% | |
| 5/8/2026 | PNC Financial Services Group Inc. | 1,577 | $86K | 0.0% | N/A | 0.003% | |
| 5/7/2026 | Florida Financial Advisors LLC | 7,752 | $425K | 0.1% | +28.2% | 0.013% | |
| 5/7/2026 | Planning Alternatives Ltd. ADV | 482,978 | $26.49M | 3.4% | N/A | 0.800% | |
| 5/6/2026 | Bessemer Group Inc. | 1,010 | $55K | 0.0% | +90.6% | 0.002% | |
| 5/6/2026 | Independent Financial Group LLC | 57,057 | $3.13M | 0.1% | N/A | 0.095% | |
| 5/6/2026 | CPA Asset Management Group LLC | 50,316 | $2.76M | 0.9% | +396.8% | 0.083% | |
| 5/5/2026 | Geneos Wealth Management Inc. | 9,050 | $496K | 0.0% | +136.3% | 0.015% | |
| 5/5/2026 | Sanctuary Advisors LLC | 44,362 | $2.43M | 0.0% | -20.5% | 0.074% | |
| 5/5/2026 | Sigma Planning Corp | 92,437 | $5.07M | 0.1% | +5.5% | 0.153% | |
| 5/4/2026 | HBW Advisory Services LLC | 46,234 | $2.54M | 0.3% | +1,004.2% | 0.077% | |
| 5/4/2026 | Gratus Wealth Advisors LLC | 456,816 | $25.05M | 3.6% | N/A | 0.757% | |
| 5/1/2026 | Avid Wealth Partners LLC | 178,938 | $9.81M | 4.6% | +14.4% | 0.297% | |
| 5/1/2026 | Walled Lake Planning & Wealth Management LLC | 9,830 | $539K | 0.2% | -8.7% | 0.016% | |
| 5/1/2026 | Arbor Capital Management Inc. ADV | 16,030 | $952K | 0.8% | +9.4% | 0.027% | |
| 5/1/2026 | Paladin Advisory Group LLC | 76,339 | $4.19M | 3.2% | +40.8% | 0.126% | |
| 4/30/2026 | Pearl Planning LLC | 16,808 | $922K | 0.5% | +5.6% | 0.028% | |
| 4/30/2026 | Stronghold Wealth Management L.L.C. | 4,850 | $266K | 0.4% | +32.6% | 0.008% | |
| 4/30/2026 | Kestra Advisory Services LLC | 309,628 | $16.98M | 0.1% | +44.3% | 0.513% | |
| 4/30/2026 | WPG Advisers LLC | 48,153 | $2.64M | 1.9% | +102.5% | 0.080% | |
| 4/29/2026 | Signet Private Wealth LLC | 6,676 | $366K | 0.3% | +6.2% | 0.011% | |
| 4/29/2026 | Integrated Advisors Network LLC | 4,875 | $267K | 0.0% | N/A | 0.008% | |
| 4/28/2026 | Whittier Trust Co. of Nevada Inc. | 1,225 | $69K | 0.0% | N/A | 0.002% | |
| 4/28/2026 | Ascentis Independent Advisors | 53,807 | $2.95M | 0.2% | N/A | 0.090% | |
| 4/28/2026 | Berger Financial Group Inc | 9,848 | $540K | 0.0% | +12.3% | 0.016% | |
| 4/28/2026 | Astoria Portfolio Advisors LLC. | 10,358 | $605K | 0.1% | +171.1% | 0.017% | |
| 4/27/2026 | USAdvisors Wealth Management LLC | 89,231 | $4.72M | 1.6% | +47.5% | 0.148% | |
| 4/27/2026 | Private Advisor Group LLC | 311,265 | $17.07M | 0.1% | +12.1% | 0.518% | |
| 4/27/2026 | Trademark Financial Management LLC | 136,432 | $7.48M | 3.7% | +13.8% | 0.227% | |
| 4/27/2026 | Three Cord True Wealth Management LLC | 290,011 | $15.90M | 8.8% | +6.5% | 0.483% | |
| 4/25/2026 | Able Wealth Management LLC | 101,568 | $5.57M | 1.5% | -46.2% | 0.169% | |
| 4/24/2026 | Essex Financial Services Inc. | 17,363 | $952K | 0.1% | +29.5% | 0.029% | |
| 4/24/2026 | Partners Wealth Management LLC | 4,424 | $243K | 0.3% | N/A | 0.007% | |
| 4/23/2026 | Manchester Financial Inc. | 456,012 | $25.01M | 4.8% | +0.6% | 0.759% | |
| 4/23/2026 | Next Level Private LLC | 15,734 | $863K | 0.2% | N/A | 0.026% | |
| 4/23/2026 | Continuum Advisory LLC | 22,519 | $1.24M | 0.1% | +199.3% | 0.037% | |
| 4/23/2026 | Apollon Wealth Management LLC | 28,258 | $1.55M | 0.0% | +8.5% | 0.047% | |
| 4/22/2026 | Janney Montgomery Scott LLC | 211,304 | $11.59M | 0.0% | +67.7% | 0.352% | |
| 4/22/2026 | Harbor Asset Planning Inc. | 749 | $41K | 0.0% | N/A | 0.001% | |
| 4/22/2026 | Welch Financial Planning LLC | 106,162 | $5.82M | 4.2% | +21.4% | 0.178% | |
| 4/22/2026 | Systelligence LLC | 165,135 | $9.06M | 1.8% | -18.3% | 0.276% | |
| 4/22/2026 | Rooted Wealth Advisors Inc. | 379,170 | $22.63M | 5.7% | +12.6% | 0.634% | |
| 4/22/2026 | Meridian Financial Advisors LLC | 10,592 | $581K | 0.3% | +75.1% | 0.018% | |
| 4/22/2026 | Riverstone Advisors LLC | 50,583 | $2.77M | 1.4% | +97.1% | 0.085% | |
| 4/21/2026 | Maridea Wealth Management LLC | 5,588 | $306K | 0.0% | +49.8% | 0.009% | |
The REAL Reason Trump is Invading Iran (Ad) For a moment…
Forget about Trump’s ties to Israel.
Forget about reports of Iran’s nuclear program.
Because my research has led me to believe we’re risking World War 3 with Iran for a completely different reason. Click here to find out what it is. |
| 4/21/2026 | Independent Wealth Network Inc. | 5,363 | $294K | 0.1% | N/A | 0.009% | |
| 4/21/2026 | Urban Wealth Management LLC | 81,751 | $4.48M | 4.6% | +0.3% | 0.137% | |
| 4/21/2026 | Fiduciary Alliance LLC | 7,496 | $447K | 0.0% | +31.5% | 0.013% | |
| 4/20/2026 | RFG Advisory LLC | 570,425 | $31.28M | 0.6% | +2.3% | 0.954% | |
| 4/18/2026 | Faithward Advisors LLC | 52,130 | $2.86M | 0.4% | +5.8% | 0.087% | |
| 4/17/2026 | Total Clarity Wealth Management Inc. | 5,235 | $287K | 0.1% | -9.5% | 0.009% | |
| 4/17/2026 | IFC & Insurance Marketing Inc. | 140,228 | $7.69M | 8.0% | N/A | 0.234% | |
| 4/17/2026 | Brookstone Capital Management | 232,809 | $12.77M | 0.1% | +142.9% | 0.389% | |
| 3/13/2026 | World Investment Advisors | 9,743 | $541K | 0.0% | +10.3% | 0.019% | |
| 3/9/2026 | Corient Private Wealth LLC | 9,239 | $513K | 0.0% | N/A | 0.018% | |